createdAt,value
2022-10-22T00:00:55.165Z,95487.25
2022-10-22T00:03:22.132Z,95491.31
2022-10-22T00:05:48.802Z,95498.06
2022-10-22T00:08:15.286Z,95483.84
2022-10-22T00:10:42.128Z,95483.47
2022-10-22T00:13:08.822Z,95487.91
2022-10-22T00:15:35.276Z,95508.88
2022-10-22T00:18:01.743Z,95505.97
2022-10-22T00:20:28.234Z,95502.19
2022-10-22T00:22:54.781Z,95509.88
2022-10-22T00:25:21.337Z,95504.88
2022-10-22T00:27:47.809Z,95496.03
2022-10-22T00:30:14.298Z,95498.25
2022-10-22T00:32:41.047Z,95494.41
2022-10-22T00:35:08.081Z,95498.94
2022-10-22T00:37:35.173Z,95491.84
2022-10-22T00:40:01.631Z,95487.31
2022-10-22T00:42:28.679Z,95498.81
2022-10-22T00:45:15.429Z,95505.09
2022-10-22T00:48:13.310Z,95509.88
2022-10-22T00:50:55.126Z,95509.09
2022-10-22T00:53:29.757Z,95512.66
2022-10-22T00:55:56.535Z,95511.63
2022-10-22T00:58:27.877Z,95530.22
2022-10-22T01:00:56.190Z,95545.53
2022-10-22T01:03:22.670Z,95553.47
2022-10-22T01:05:58.381Z,95557.97
2022-10-22T01:09:08.658Z,95573.50
2022-10-22T01:11:40.881Z,95575.88
2022-10-22T01:14:10.122Z,95567.69
2022-10-22T01:17:01.216Z,95565.97
2022-10-22T01:19:36.480Z,95550.22
2022-10-22T01:22:38.865Z,95543.00
2022-10-22T01:25:35.352Z,95554.81
2022-10-22T01:28:25.163Z,95557.25
2022-10-22T01:30:56.277Z,95561.69
2022-10-22T01:33:26.255Z,95548.50
2022-10-22T01:35:54.095Z,95557.94
2022-10-22T01:38:24.567Z,95559.25
2022-10-22T01:40:52.168Z,95562.34
2022-10-22T01:43:19.047Z,95573.78
2022-10-22T01:45:54.007Z,95552.25
2022-10-22T01:48:45.053Z,95568.56
2022-10-22T01:51:47.028Z,95561.94
2022-10-22T01:54:47.104Z,95532.63
2022-10-22T01:57:19.966Z,95530.41
2022-10-22T02:00:07.934Z,95532.03
2022-10-22T02:03:02.037Z,95536.78
2022-10-22T02:05:37.378Z,95533.00
2022-10-22T02:08:11.842Z,95525.84
2022-10-22T02:10:43.205Z,95516.41
2022-10-22T02:13:21.083Z,95513.75
2022-10-22T02:15:52.372Z,95507.50
2022-10-22T02:18:24.410Z,95510.78
2022-10-22T02:20:51.267Z,95530.25
2022-10-22T02:23:17.916Z,95539.19
2022-10-22T02:25:50.069Z,95545.38
2022-10-22T02:28:24.760Z,95549.22
2022-10-22T02:30:56.725Z,95560.16
2022-10-22T02:33:33.710Z,95556.91
2022-10-22T02:36:02.800Z,95566.03
2022-10-22T02:38:31.818Z,95573.00
2022-10-22T02:41:02.177Z,95574.25
2022-10-22T02:43:29.612Z,95577.31
2022-10-22T02:45:56.110Z,95571.84
2022-10-22T02:48:22.622Z,95578.66
2022-10-22T02:50:49.193Z,95574.16
2022-10-22T02:53:15.635Z,95567.63
2022-10-22T02:55:42.085Z,95578.19
2022-10-22T02:58:08.565Z,95573.78
2022-10-22T03:00:35.071Z,95567.25
2022-10-22T03:03:01.543Z,95574.56
2022-10-22T03:05:28.029Z,95576.97
2022-10-22T03:07:54.476Z,95580.63
2022-10-22T03:10:20.944Z,95574.03
2022-10-22T03:12:47.398Z,95577.72
2022-10-22T03:15:14.090Z,95574.56
2022-10-22T03:17:40.886Z,95572.09
2022-10-22T03:20:07.961Z,95582.09
2022-10-22T03:22:38.175Z,95580.13
2022-10-22T03:25:10.318Z,95591.88
2022-10-22T03:27:40.051Z,95586.91
2022-10-22T03:30:07.624Z,95585.28
2022-10-22T03:32:34.075Z,95591.97
2022-10-22T03:37:34.543Z,95578.19
2022-10-22T03:40:02.795Z,95585.88
2022-10-22T03:42:29.293Z,95582.00
2022-10-22T03:44:55.780Z,95594.28
2022-10-22T03:47:22.270Z,95595.66
2022-10-22T03:49:48.738Z,95600.16
2022-10-22T03:52:15.203Z,95602.84
2022-10-22T03:54:41.763Z,95602.34
2022-10-22T03:57:08.565Z,95600.66
2022-10-22T03:59:41.235Z,95594.94
2022-10-22T04:02:08.691Z,95605.53
2022-10-22T04:04:36.167Z,95608.66
2022-10-22T04:07:03.019Z,95612.63
2022-10-22T04:09:33.315Z,95618.31
2022-10-22T04:12:00.493Z,95615.94
2022-10-22T04:14:47.608Z,95616.34
2022-10-22T04:17:14.867Z,95621.22
2022-10-22T04:19:41.341Z,95623.69
2022-10-22T04:22:07.770Z,95628.59
2022-10-22T04:24:34.274Z,95626.97
2022-10-22T04:27:00.739Z,95627.34
2022-10-22T04:29:27.180Z,95635.50
2022-10-22T04:31:53.733Z,95626.50
2022-10-22T04:34:20.154Z,95625.22
2022-10-22T04:36:46.690Z,95630.13
2022-10-22T04:39:13.140Z,95631.38
2022-10-22T04:41:39.823Z,95643.59
2022-10-22T04:44:09.887Z,95644.03
2022-10-22T04:46:39.993Z,95644.00
2022-10-22T04:49:06.505Z,95645.22
2022-10-22T04:51:33.252Z,95641.47
2022-10-22T04:53:59.696Z,95644.72
2022-10-22T04:56:29.907Z,95641.19
2022-10-22T04:59:02.375Z,95641.81
2022-10-22T05:01:31.933Z,95644.66
2022-10-22T05:04:01.017Z,95642.00
2022-10-22T05:06:29.504Z,95634.38
2022-10-22T05:08:59.434Z,95639.50
2022-10-22T05:11:37.706Z,95652.38
2022-10-22T05:14:06.351Z,95657.97
2022-10-22T05:16:34.392Z,95652.50
2022-10-22T05:19:03.263Z,95649.19
2022-10-22T05:21:29.755Z,95646.28
2022-10-22T05:23:57.348Z,95644.66
2022-10-22T05:26:23.819Z,95646.28
2022-10-22T05:28:50.816Z,95657.78
2022-10-22T05:31:18.904Z,95658.66
2022-10-22T05:33:46.191Z,95657.00
2022-10-22T05:36:15.990Z,95652.09
2022-10-22T05:38:42.434Z,95659.94
2022-10-22T05:41:17.605Z,95667.72
2022-10-22T05:43:44.810Z,95672.19
2022-10-22T05:46:22.866Z,95672.53
2022-10-22T05:48:55.847Z,95678.84
2022-10-22T05:51:23.943Z,95687.84
2022-10-22T05:53:58.823Z,95682.97
2022-10-22T05:56:26.761Z,95689.31
2022-10-22T05:58:53.628Z,95686.22
2022-10-22T06:01:21.538Z,95689.91
2022-10-22T06:03:48.983Z,95696.47
2022-10-22T06:06:31.743Z,95691.94
2022-10-22T06:09:12.473Z,95688.66
2022-10-22T06:11:39.286Z,95694.81
2022-10-22T06:14:05.747Z,95692.16
2022-10-22T06:16:32.305Z,95691.53
2022-10-22T06:19:00.520Z,95698.06
2022-10-22T06:21:27.015Z,95702.56
2022-10-22T06:23:56.288Z,95711.19
2022-10-22T06:26:22.716Z,95707.50
2022-10-22T06:28:49.175Z,95708.31
2022-10-22T06:31:15.664Z,95725.50
2022-10-22T06:33:42.088Z,95730.81
2022-10-22T06:36:14.143Z,95721.00
2022-10-22T06:38:41.288Z,95726.31
2022-10-22T06:41:13.668Z,95732.88
2022-10-22T06:43:41.612Z,95737.56
2022-10-22T06:46:09.631Z,95740.63
2022-10-22T06:48:37.275Z,95746.75
2022-10-22T06:51:05.238Z,95744.72
2022-10-22T06:53:32.122Z,95749.22
2022-10-22T06:55:58.651Z,95751.03
2022-10-22T06:58:25.123Z,95753.69
2022-10-22T07:01:02.934Z,95750.44
2022-10-22T07:03:29.852Z,95758.22
2022-10-22T07:06:02.636Z,95763.00
2022-10-22T07:08:29.450Z,95765.22
2022-10-22T07:10:56.931Z,95757.03
2022-10-22T07:13:26.444Z,95771.16
2022-10-22T07:15:54.731Z,95766.88
2022-10-22T07:18:22.029Z,95773.81
2022-10-22T07:20:49.365Z,95766.66
2022-10-22T07:23:16.636Z,95757.81
2022-10-22T07:25:43.567Z,95755.72
2022-10-22T07:28:11.151Z,95761.88
2022-10-22T07:30:39.437Z,95770.41
2022-10-22T07:33:06.917Z,95750.06
2022-10-22T07:35:33.456Z,95758.84
2022-10-22T07:38:00.557Z,95758.78
2022-10-22T07:40:27.019Z,95770.28
2022-10-22T07:42:53.462Z,95763.69
2022-10-22T07:45:19.909Z,95762.06
2022-10-22T07:47:47.972Z,95767.91
2022-10-22T07:50:15.485Z,95762.78
2022-10-22T07:52:42.370Z,95758.28
2022-10-22T07:55:09.355Z,95756.50
2022-10-22T07:57:35.988Z,95758.66
2022-10-22T08:00:06.311Z,95761.56
2022-10-22T08:02:33.159Z,95763.63
2022-10-22T08:04:59.745Z,95770.16
2022-10-22T08:09:57.599Z,95782.03
2022-10-22T08:12:24.080Z,95772.13
2022-10-22T08:14:50.571Z,95779.09
2022-10-22T08:17:17.071Z,95780.75
2022-10-22T08:19:43.617Z,95791.75
2022-10-22T08:22:10.059Z,95782.81
2022-10-22T08:24:36.505Z,95789.06
2022-10-22T08:27:03.083Z,95787.53
2022-10-22T08:29:29.537Z,95791.50
2022-10-22T08:31:56.037Z,95790.56
2022-10-22T08:34:22.500Z,95783.41
2022-10-22T08:36:48.945Z,95786.38
2022-10-22T08:39:15.425Z,95784.84
2022-10-22T08:42:02.069Z,95788.13
2022-10-22T08:44:47.317Z,95790.78
2022-10-22T08:47:41.155Z,95801.63
2022-10-22T08:50:15.711Z,95801.22
2022-10-22T08:52:49.492Z,95814.38
2022-10-22T08:55:17.203Z,95806.00
2022-10-22T08:57:48.782Z,95804.31
2022-10-22T09:00:27.673Z,95794.53
2022-10-22T09:03:02.383Z,95799.75
2022-10-22T09:06:02.178Z,95800.03
2022-10-22T09:08:28.620Z,95797.22
2022-10-22T09:11:35.662Z,95789.78
2022-10-22T09:14:04.599Z,95792.47
2022-10-22T09:16:42.824Z,95793.00
2022-10-22T09:19:36.367Z,95792.47
2022-10-22T09:25:18.472Z,95792.53
2022-10-22T09:27:45.229Z,95793.97
2022-10-22T09:30:19.045Z,95796.72
2022-10-22T09:32:45.955Z,95798.50
2022-10-22T09:35:14.288Z,95805.75
2022-10-22T09:37:50.695Z,95797.16
2022-10-22T09:40:18.083Z,95812.38
2022-10-22T09:42:46.744Z,95800.25
2022-10-22T09:45:20.353Z,95806.97
2022-10-22T09:48:01.401Z,95800.31
2022-10-22T09:50:41.012Z,95796.78
2022-10-22T09:53:31.685Z,95799.09
2022-10-22T09:56:01.183Z,95790.25
2022-10-22T09:58:28.188Z,95793.44
2022-10-22T10:00:58.983Z,95793.06
2022-10-22T10:03:32.067Z,95797.53
2022-10-22T10:06:04.746Z,95803.00
2022-10-22T10:08:33.508Z,95804.94
2022-10-22T10:11:10.209Z,95805.09
2022-10-22T10:13:52.221Z,95807.88
2022-10-22T10:16:36.860Z,95803.69
2022-10-22T10:19:29.389Z,95803.44
2022-10-22T10:22:26.125Z,95799.38
2022-10-22T10:25:23.926Z,95805.38
2022-10-22T10:28:09.029Z,95807.50
2022-10-22T10:30:48.876Z,95803.56
2022-10-22T10:33:21.957Z,95806.31
2022-10-22T10:36:02.846Z,95807.50
2022-10-22T10:38:42.280Z,95793.44
2022-10-22T10:41:32.777Z,95794.09
2022-10-22T10:44:26.558Z,95790.47
2022-10-22T10:47:19.176Z,95789.78
2022-10-22T10:49:46.263Z,95790.06
2022-10-22T10:52:30.640Z,95792.63
2022-10-22T10:55:19.546Z,95781.56
2022-10-22T10:58:21.187Z,95779.38
2022-10-22T11:01:02.699Z,95784.91
2022-10-22T11:03:29.102Z,95782.34
2022-10-22T11:06:00.011Z,95784.59
2022-10-22T11:09:14.368Z,95780.16
2022-10-22T11:11:49.951Z,95783.28
2022-10-22T11:14:42.449Z,95779.88
2022-10-22T11:17:16.500Z,95773.78
2022-10-22T11:20:04.299Z,95768.59
2022-10-22T11:23:18.201Z,95760.28
2022-10-22T11:25:48.951Z,95763.69
2022-10-22T11:28:32.175Z,95757.47
2022-10-22T11:31:08.250Z,95758.38
2022-10-22T11:34:32.664Z,95751.38
2022-10-22T11:36:59.935Z,95748.94
2022-10-22T11:39:42.771Z,95749.00
2022-10-22T11:42:18.005Z,95750.50
2022-10-22T11:44:58.243Z,95753.75
2022-10-22T11:47:27.657Z,95737.13
2022-10-22T11:50:02.354Z,95748.28
2022-10-22T11:52:31.720Z,95747.00
2022-10-22T11:55:02.563Z,95749.00
2022-10-22T11:57:39.398Z,95745.97
2022-10-22T12:00:31.007Z,95754.28
2022-10-22T12:03:18.053Z,95747.56
2022-10-22T12:05:45.553Z,95741.28
2022-10-22T12:08:20.500Z,95737.13
2022-10-22T12:11:14.328Z,95736.47
2022-10-22T12:14:13.344Z,95730.22
2022-10-22T12:16:55.778Z,95731.22
2022-10-22T12:19:22.870Z,95730.22
2022-10-22T12:22:12.989Z,95734.28
2022-10-22T12:24:43.839Z,95723.03
2022-10-22T12:27:55.940Z,95720.09
2022-10-22T12:30:23.802Z,95716.72
2022-10-22T12:32:55.740Z,95711.13
2022-10-22T12:35:27.030Z,95706.72
2022-10-22T12:38:21.654Z,95704.25
2022-10-22T12:40:50.613Z,95701.13
2022-10-22T12:43:19.958Z,95697.72
2022-10-22T12:45:49.774Z,95705.28
2022-10-22T12:48:23.770Z,95697.94
2022-10-22T12:50:56.304Z,95699.66
2022-10-22T12:53:29.160Z,95692.78
2022-10-22T12:56:01.117Z,95686.66
2022-10-22T12:58:32.955Z,95692.47
2022-10-22T13:01:00.311Z,95695.34
2022-10-22T13:03:30.912Z,95692.03
2022-10-22T13:05:57.463Z,95680.50
2022-10-22T13:08:27.653Z,95681.78
2022-10-22T13:10:54.874Z,95684.66
2022-10-22T13:13:31.583Z,95670.94
2022-10-22T13:16:13.588Z,95671.50
2022-10-22T13:18:40.602Z,95672.38
2022-10-22T13:21:23.366Z,95681.59
2022-10-22T13:24:18.744Z,95675.47
2022-10-22T13:26:50.312Z,95678.75
2022-10-22T13:29:20.166Z,95677.38
2022-10-22T13:31:50.406Z,95683.88
2022-10-22T13:34:21.178Z,95676.78
2022-10-22T13:36:48.646Z,95670.09
2022-10-22T13:39:23.634Z,95671.31
2022-10-22T13:41:51.371Z,95662.34
2022-10-22T13:44:19.075Z,95672.09
2022-10-22T13:46:47.433Z,95663.88
2022-10-22T13:49:20.297Z,95658.94
2022-10-22T13:51:47.449Z,95662.47
2022-10-22T13:54:17.637Z,95663.03
2022-10-22T13:56:44.144Z,95667.50
2022-10-22T13:59:10.820Z,95678.56
2022-10-22T14:01:38.788Z,95671.97
2022-10-22T14:04:10.274Z,95667.38
2022-10-22T14:09:14.597Z,95663.13
2022-10-22T14:11:41.154Z,95663.16
2022-10-22T14:14:07.645Z,95650.66
2022-10-22T14:16:35.083Z,95651.75
2022-10-22T14:19:04.190Z,95643.66
2022-10-22T14:21:36.593Z,95643.03
2022-10-22T14:24:05.990Z,95630.84
2022-10-22T14:26:34.926Z,95649.53
2022-10-22T14:29:10.656Z,95638.84
2022-10-22T14:34:13.486Z,95630.69
2022-10-22T14:36:40.023Z,95624.56
2022-10-22T14:39:06.454Z,95627.16
2022-10-22T14:41:32.951Z,95632.53
2022-10-22T14:43:59.403Z,95631.75
2022-10-22T14:46:25.917Z,95622.25
2022-10-22T14:48:52.353Z,95624.47
2022-10-22T14:51:21.194Z,95620.94
2022-10-22T14:53:47.926Z,95613.34
2022-10-22T14:56:18.007Z,95613.97
2022-10-22T14:58:44.523Z,95619.75
2022-10-22T15:01:11.056Z,95613.19
2022-10-22T15:03:37.635Z,95620.34
2022-10-22T15:06:04.364Z,95619.09
2022-10-22T15:08:31.051Z,95613.47
2022-10-22T15:11:09.808Z,95606.78
2022-10-22T15:13:36.271Z,95617.28
2022-10-22T15:16:06.276Z,95610.19
2022-10-22T15:18:32.744Z,95613.00
2022-10-22T15:21:03.453Z,95620.72
2022-10-22T15:23:30.479Z,95609.94
2022-10-22T15:25:56.979Z,95604.53
2022-10-22T15:28:24.691Z,95613.81
2022-10-22T15:30:56.082Z,95612.41
2022-10-22T15:33:22.893Z,95603.25
2022-10-22T15:35:49.474Z,95612.53
2022-10-22T15:38:16.843Z,95601.75
2022-10-22T15:40:43.396Z,95614.31
2022-10-22T15:43:10.717Z,95616.97
2022-10-22T15:45:37.160Z,95611.09
2022-10-22T15:48:04.103Z,95614.38
2022-10-22T15:50:30.719Z,95618.78
2022-10-22T15:52:57.267Z,95619.91
2022-10-22T15:55:23.742Z,95617.25
2022-10-22T15:57:53.925Z,95609.66
2022-10-22T16:00:21.621Z,95614.41
2022-10-22T16:02:48.182Z,95606.69
2022-10-22T16:05:14.669Z,95609.91
2022-10-22T16:07:41.527Z,95606.13
2022-10-22T16:10:08.621Z,95591.75
2022-10-22T16:12:35.068Z,95597.81
2022-10-22T16:15:01.571Z,95603.34
2022-10-22T16:17:28.039Z,95600.28
2022-10-22T16:19:54.504Z,95598.38
2022-10-22T16:22:20.947Z,95607.78
2022-10-22T16:24:47.379Z,95603.13
2022-10-22T16:27:13.823Z,95611.78
2022-10-22T16:29:40.288Z,95607.50
2022-10-22T16:32:07.171Z,95611.53
2022-10-22T16:34:33.613Z,95612.53
2022-10-22T16:37:00.103Z,95619.78
2022-10-22T16:39:26.574Z,95619.34
2022-10-22T16:41:53.048Z,95614.34
2022-10-22T16:44:19.508Z,95614.44
2022-10-22T16:46:45.955Z,95620.84
2022-10-22T16:49:12.397Z,95616.56
2022-10-22T16:51:39.126Z,95612.94
2022-10-22T16:54:08.335Z,95613.97
2022-10-22T16:56:37.882Z,95613.06
2022-10-22T16:59:04.316Z,95623.72
2022-10-22T17:01:30.862Z,95635.56
2022-10-22T17:04:00.770Z,95637.53
2022-10-22T17:06:28.077Z,95648.97
2022-10-22T17:08:54.610Z,95646.38
2022-10-22T17:11:23.783Z,95640.50
2022-10-22T17:13:53.396Z,95638.50
2022-10-22T17:16:22.837Z,95640.69
2022-10-22T17:18:49.316Z,95635.25
2022-10-22T17:21:16.955Z,95648.00
2022-10-22T17:23:43.702Z,95651.72
2022-10-22T17:26:16.352Z,95648.28
2022-10-22T17:28:42.863Z,95649.81
2022-10-22T17:31:17.059Z,95653.50
2022-10-22T17:33:43.841Z,95660.94
2022-10-22T17:36:11.138Z,95654.75
2022-10-22T17:38:37.779Z,95656.03
2022-10-22T17:41:07.006Z,95654.84
2022-10-22T17:43:37.555Z,95657.81
2022-10-22T17:46:06.747Z,95659.72
2022-10-22T17:48:34.140Z,95670.28
2022-10-22T17:51:00.905Z,95664.19
2022-10-22T17:53:27.413Z,95663.78
2022-10-22T17:56:02.493Z,95657.28
2022-10-22T17:58:30.238Z,95663.34
2022-10-22T18:00:57.573Z,95661.69
2022-10-22T18:03:24.416Z,95670.59
2022-10-22T18:05:51.024Z,95672.06
2022-10-22T18:08:17.588Z,95670.84
2022-10-22T18:10:44.082Z,95665.97
2022-10-22T18:13:10.656Z,95670.97
2022-10-22T18:15:37.158Z,95678.09
2022-10-22T18:18:03.857Z,95672.97
2022-10-22T18:20:30.896Z,95674.22
2022-10-22T18:22:57.534Z,95670.63
2022-10-22T18:25:24.067Z,95671.88
2022-10-22T18:27:50.588Z,95668.22
2022-10-22T18:30:17.119Z,95675.59
2022-10-22T18:32:43.612Z,95672.31
2022-10-22T18:35:11.880Z,95671.16
2022-10-22T18:37:38.412Z,95671.53
2022-10-22T18:40:05.689Z,95676.44
2022-10-22T18:42:37.754Z,95688.72
2022-10-22T18:45:08.837Z,95677.44
2022-10-22T18:47:40.206Z,95675.13
2022-10-22T18:50:07.418Z,95674.38
2022-10-22T18:52:34.189Z,95683.38
2022-10-22T18:55:00.743Z,95680.47
2022-10-22T18:57:27.220Z,95674.75
2022-10-22T18:59:55.937Z,95679.72
2022-10-22T19:02:25.705Z,95678.06
2022-10-22T19:04:52.267Z,95672.38
2022-10-22T19:07:18.733Z,95677.28
2022-10-22T19:09:45.402Z,95675.69
2022-10-22T19:12:12.002Z,95668.25
2022-10-22T19:14:38.565Z,95668.34
2022-10-22T19:17:05.204Z,95675.31
2022-10-22T19:19:31.838Z,95680.72
2022-10-22T19:21:58.322Z,95672.00
2022-10-22T19:24:25.249Z,95672.44
2022-10-22T19:26:52.077Z,95677.22
2022-10-22T19:29:20.553Z,95688.69
2022-10-22T19:31:48.348Z,95677.09
2022-10-22T19:34:15.709Z,95673.63
2022-10-22T19:36:42.570Z,95671.19
2022-10-22T19:39:09.119Z,95669.94
2022-10-22T19:41:36.405Z,95675.25
2022-10-22T19:44:03.039Z,95676.25
2022-10-22T19:46:30.643Z,95682.56
2022-10-22T19:48:57.292Z,95670.69
2022-10-22T19:51:28.293Z,95667.38
2022-10-22T19:54:00.441Z,95650.56
2022-10-22T19:56:28.222Z,95663.44
2022-10-22T19:58:55.606Z,95664.00
2022-10-22T20:01:22.768Z,95670.94
2022-10-22T20:03:49.350Z,95668.06
2022-10-22T20:06:17.409Z,95666.63
2022-10-22T20:08:45.577Z,95670.94
2022-10-22T20:11:18.767Z,95668.50
2022-10-22T20:13:48.154Z,95676.25
2022-10-22T20:16:20.806Z,95680.34
2022-10-22T20:18:47.373Z,95679.94
2022-10-22T20:21:16.568Z,95666.84
2022-10-22T20:23:43.148Z,95678.38
2022-10-22T20:26:09.847Z,95682.53
2022-10-22T20:28:38.053Z,95681.66
2022-10-22T20:31:24.600Z,95686.59
2022-10-22T20:33:51.126Z,95685.34
2022-10-22T20:36:22.655Z,95687.78
2022-10-22T20:38:50.189Z,95680.41
2022-10-22T20:41:20.962Z,95685.91
2022-10-22T20:43:49.535Z,95685.28
2022-10-22T20:46:19.420Z,95691.00
2022-10-22T20:48:46.302Z,95696.34
2022-10-22T20:51:13.515Z,95692.66
2022-10-22T20:53:40.059Z,95694.88
2022-10-22T20:56:06.806Z,95692.03
2022-10-22T20:58:33.579Z,95691.81
2022-10-22T21:01:00.513Z,95690.59
2022-10-22T21:03:27.155Z,95692.38
2022-10-22T21:05:53.686Z,95695.06
2022-10-22T21:08:20.239Z,95699.34
2022-10-22T21:10:47.207Z,95699.72
2022-10-22T21:13:14.634Z,95697.69
2022-10-22T21:15:41.269Z,95699.13
2022-10-22T21:18:08.622Z,95697.91
2022-10-22T21:20:35.366Z,95706.50
2022-10-22T21:23:01.906Z,95706.53
2022-10-22T21:25:28.530Z,95698.31
2022-10-22T21:27:55.050Z,95700.75
2022-10-22T21:30:21.518Z,95695.06
2022-10-22T21:32:48.001Z,95701.25
2022-10-22T21:35:14.527Z,95694.66
2022-10-22T21:37:41.345Z,95692.66
2022-10-22T21:40:08.553Z,95691.44
2022-10-22T21:42:35.314Z,95708.66
2022-10-22T21:45:02.025Z,95703.44
2022-10-22T21:47:28.638Z,95703.50
2022-10-22T21:49:55.136Z,95704.50
2022-10-22T21:52:21.842Z,95706.97
2022-10-22T21:54:48.598Z,95700.59
2022-10-22T21:57:15.177Z,95702.28
2022-10-22T21:59:41.786Z,95701.81
2022-10-22T22:02:08.460Z,95693.00
2022-10-22T22:04:35.244Z,95695.63
2022-10-22T22:07:01.824Z,95697.91
2022-10-22T22:09:28.414Z,95694.81
2022-10-22T22:11:55.506Z,95700.09
2022-10-22T22:14:23.262Z,95696.38
2022-10-22T22:16:50.260Z,95696.38
2022-10-22T22:19:19.505Z,95691.22
2022-10-22T22:21:46.514Z,95682.81
2022-10-22T22:24:14.385Z,95699.41
2022-10-22T22:26:45.444Z,95697.59
2022-10-22T22:29:12.226Z,95692.69
2022-10-22T22:31:39.146Z,95704.34
2022-10-22T22:34:15.599Z,95698.63
2022-10-22T22:36:47.288Z,95688.00
2022-10-22T22:39:19.173Z,95684.91
2022-10-22T22:41:47.358Z,95687.19
2022-10-22T22:44:15.469Z,95682.69
2022-10-22T22:46:43.771Z,95682.88
2022-10-22T22:49:13.092Z,95676.34
2022-10-22T22:51:40.059Z,95692.31
2022-10-22T22:54:07.184Z,95683.94
2022-10-22T22:56:34.200Z,95680.25
2022-10-22T22:59:01.524Z,95680.47
2022-10-22T23:01:34.799Z,95681.31
2022-10-22T23:04:09.294Z,95686.22
2022-10-22T23:06:37.266Z,95684.78
2022-10-22T23:09:06.155Z,95687.44
2022-10-22T23:11:33.905Z,95691.50
2022-10-22T23:14:02.408Z,95683.56
2022-10-22T23:16:32.516Z,95683.56
2022-10-22T23:19:01.857Z,95681.13
2022-10-22T23:21:31.440Z,95673.72
2022-10-22T23:24:00.924Z,95676.00
2022-10-22T23:26:33.852Z,95680.09
2022-10-22T23:29:10.103Z,95683.78
2022-10-22T23:31:37.531Z,95680.09
2022-10-22T23:34:06.947Z,95674.78
2022-10-22T23:36:35.709Z,95673.56
2022-10-22T23:39:11.764Z,95675.63
2022-10-22T23:41:38.763Z,95675.63
2022-10-22T23:44:06.703Z,95673.56
2022-10-22T23:46:33.214Z,95674.59
2022-10-22T23:49:00.835Z,95667.22
2022-10-22T23:51:28.040Z,95674.00
2022-10-22T23:54:00.759Z,95669.09
2022-10-22T23:56:29.308Z,95664.41
2022-10-22T23:58:56.653Z,95661.38
